sensor_id;sensor_type;location;lat;lon;timestamp;pressure;altitude;pressure_sealevel;temperature;humidity
67038;BME280;53940;53.204;6.590;2023-12-07T00:00:21;101733.97;;;21.81;33.48
67038;BME280;53940;53.204;6.590;2023-12-07T00:03:21;101725.81;;;21.83;33.67
67038;BME280;53940;53.204;6.590;2023-12-07T00:06:21;101727.50;;;21.84;33.68
67038;BME280;53940;53.204;6.590;2023-12-07T00:09:22;101730.91;;;21.86;33.54
67038;BME280;53940;53.204;6.590;2023-12-07T00:12:22;101721.88;;;21.87;33.41
67038;BME280;53940;53.204;6.590;2023-12-07T00:15:22;101727.00;;;21.90;33.51
67038;BME280;53940;53.204;6.590;2023-12-07T00:18:22;101716.13;;;21.92;33.34
67038;BME280;53940;53.204;6.590;2023-12-07T00:21:23;101723.06;;;21.94;33.06
67038;BME280;53940;53.204;6.590;2023-12-07T00:24:23;101724.81;;;21.96;33.23
67038;BME280;53940;53.204;6.590;2023-12-07T00:27:23;101722.84;;;21.98;33.27
67038;BME280;53940;53.204;6.590;2023-12-07T00:30:24;101726.22;;;22.00;32.99
67038;BME280;53940;53.204;6.590;2023-12-07T00:33:24;101725.13;;;22.02;32.84
67038;BME280;53940;53.204;6.590;2023-12-07T00:36:25;101724.13;;;22.03;32.97
67038;BME280;53940;53.204;6.590;2023-12-07T00:39:26;101721.22;;;22.06;32.95
67038;BME280;53940;53.204;6.590;2023-12-07T00:42:26;101731.84;;;22.08;33.03
67038;BME280;53940;53.204;6.590;2023-12-07T00:45:27;101734.25;;;22.11;32.92
67038;BME280;53940;53.204;6.590;2023-12-07T00:48:27;101737.66;;;22.13;32.78
67038;BME280;53940;53.204;6.590;2023-12-07T00:51:27;101737.41;;;22.16;32.92
67038;BME280;53940;53.204;6.590;2023-12-07T00:54:28;101740.81;;;22.18;32.73
67038;BME280;53940;53.204;6.590;2023-12-07T00:57:28;101736.19;;;22.20;32.85
67038;BME280;53940;53.204;6.590;2023-12-07T01:00:28;101742.97;;;22.25;32.80
67038;BME280;53940;53.204;6.590;2023-12-07T01:03:28;101744.56;;;22.27;32.79
67038;BME280;53940;53.204;6.590;2023-12-07T01:06:30;101745.31;;;22.29;32.71
67038;BME280;53940;53.204;6.590;2023-12-07T01:09:30;101752.22;;;22.32;32.66
67038;BME280;53940;53.204;6.590;2023-12-07T01:12:30;101742.22;;;22.34;32.40
67038;BME280;53940;53.204;6.590;2023-12-07T01:15:31;101748.31;;;22.36;32.61
67038;BME280;53940;53.204;6.590;2023-12-07T01:18:31;101757.81;;;22.40;32.20
67038;BME280;53940;53.204;6.590;2023-12-07T01:21:31;101755.84;;;22.42;32.19
67038;BME280;53940;53.204;6.590;2023-12-07T01:24:32;101760.09;;;22.45;32.16
67038;BME280;53940;53.204;6.590;2023-12-07T01:27:32;101761.69;;;22.47;32.43
67038;BME280;53940;53.204;6.590;2023-12-07T01:30:32;101759.72;;;22.49;32.28
67038;BME280;53940;53.204;6.590;2023-12-07T01:33:32;101754.13;;;22.53;32.08
67038;BME280;53940;53.204;6.590;2023-12-07T01:36:33;101753.84;;;22.56;32.25
67038;BME280;53940;53.204;6.590;2023-12-07T01:39:33;101757.28;;;22.58;32.01
67038;BME280;53940;53.204;6.590;2023-12-07T01:42:34;101757.00;;;22.61;32.13
67038;BME280;53940;53.204;6.590;2023-12-07T01:45:34;101763.13;;;22.63;31.84
67038;BME280;53940;53.204;6.590;2023-12-07T01:48:34;101768.22;;;22.66;32.22
67038;BME280;53940;53.204;6.590;2023-12-07T01:51:35;101766.25;;;22.68;32.03
67038;BME280;53940;53.204;6.590;2023-12-07T01:54:35;101777.72;;;22.70;32.01
67038;BME280;53940;53.204;6.590;2023-12-07T01:57:36;101769.50;;;22.72;31.77
67038;BME280;53940;53.204;6.590;2023-12-07T02:00:37;101771.25;;;22.73;32.00
67038;BME280;53940;53.204;6.590;2023-12-07T02:03:39;101773.78;;;22.74;31.84
67038;BME280;53940;53.204;6.590;2023-12-07T02:06:40;101770.13;;;22.75;31.80
67038;BME280;53940;53.204;6.590;2023-12-07T02:09:40;101775.34;;;22.77;31.89
67038;BME280;53940;53.204;6.590;2023-12-07T02:12:41;101768.16;;;22.78;31.98
67038;BME280;53940;53.204;6.590;2023-12-07T02:15:41;101761.91;;;22.77;31.85
67038;BME280;53940;53.204;6.590;2023-12-07T02:18:54;101755.56;;;22.78;31.64
67038;BME280;53940;53.204;6.590;2023-12-07T02:22:03;101761.78;;;22.79;31.69
67038;BME280;53940;53.204;6.590;2023-12-07T02:25:09;101761.78;;;22.79;31.92
67038;BME280;53940;53.204;6.590;2023-12-07T02:28:10;101758.13;;;22.80;31.89
67038;BME280;53940;53.204;6.590;2023-12-07T02:31:10;101762.50;;;22.81;31.90
67038;BME280;53940;53.204;6.590;2023-12-07T02:34:11;101765.19;;;22.81;32.00
67038;BME280;53940;53.204;6.590;2023-12-07T02:37:11;101767.88;;;22.81;31.87
67038;BME280;53940;53.204;6.590;2023-12-07T02:40:15;101773.25;;;22.81;31.88
67038;BME280;53940;53.204;6.590;2023-12-07T02:43:17;101771.56;;;22.80;32.03
67038;BME280;53940;53.204;6.590;2023-12-07T02:46:18;101773.25;;;22.81;31.92
67038;BME280;53940;53.204;6.590;2023-12-07T02:49:18;101771.56;;;22.80;31.94
67038;BME280;53940;53.204;6.590;2023-12-07T02:52:19;101767.88;;;22.81;31.96
67038;BME280;53940;53.204;6.590;2023-12-07T02:55:19;101773.25;;;22.81;31.78
67038;BME280;53940;53.204;6.590;2023-12-07T02:58:19;101779.50;;;22.81;31.87
67038;BME280;53940;53.204;6.590;2023-12-07T03:01:20;101775.00;;;22.82;31.97
67038;BME280;53940;53.204;6.590;2023-12-07T03:04:20;101775.94;;;22.81;31.95
67038;BME280;53940;53.204;6.590;2023-12-07T03:07:20;101775.00;;;22.82;32.00
67038;BME280;53940;53.204;6.590;2023-12-07T03:10:21;101775.94;;;22.81;32.00
67038;BME280;53940;53.204;6.590;2023-12-07T03:13:21;101773.25;;;22.81;32.01
67038;BME280;53940;53.204;6.590;2023-12-07T03:16:21;101766.94;;;22.82;31.91
67038;BME280;53940;53.204;6.590;2023-12-07T03:19:22;101766.19;;;22.80;31.95
67038;BME280;53940;53.204;6.590;2023-12-07T03:22:22;101758.13;;;22.80;32.05
67038;BME280;53940;53.204;6.590;2023-12-07T03:25:22;101760.81;;;22.80;31.83
67038;BME280;53940;53.204;6.590;2023-12-07T03:28:23;101768.88;;;22.80;31.91
67038;BME280;53940;53.204;6.590;2023-12-07T03:31:23;101763.50;;;22.80;32.03
67038;BME280;53940;53.204;6.590;2023-12-07T03:34:24;101763.50;;;22.80;31.95
67038;BME280;53940;53.204;6.590;2023-12-07T03:37:24;101758.25;;;22.78;31.96
67038;BME280;53940;53.204;6.590;2023-12-07T03:40:25;101762.78;;;22.78;31.93
67038;BME280;53940;53.204;6.590;2023-12-07T03:43:25;101766.47;;;22.77;32.07
67038;BME280;53940;53.204;6.590;2023-12-07T03:46:25;101762.06;;;22.75;31.94
67038;BME280;53940;53.204;6.590;2023-12-07T03:49:26;101760.22;;;22.76;32.04
67038;BME280;53940;53.204;6.590;2023-12-07T03:52:26;101765.72;;;22.74;32.07
67038;BME280;53940;53.204;6.590;2023-12-07T03:55:26;101768.41;;;22.74;32.01
67038;BME280;53940;53.204;6.590;2023-12-07T03:58:27;101770.25;;;22.74;32.03
67038;BME280;53940;53.204;6.590;2023-12-07T04:01:29;101768.56;;;22.73;31.99
67038;BME280;53940;53.204;6.590;2023-12-07T04:04:29;101763.31;;;22.71;32.01
67038;BME280;53940;53.204;6.590;2023-12-07T04:07:29;101767.81;;;22.71;32.11
67038;BME280;53940;53.204;6.590;2023-12-07T04:10:30;101776.03;;;22.69;32.07
67038;BME280;53940;53.204;6.590;2023-12-07T04:13:30;101765.28;;;22.69;32.21
67038;BME280;53940;53.204;6.590;2023-12-07T04:16:30;101775.16;;;22.69;32.07
67038;BME280;53940;53.204;6.590;2023-12-07T04:19:31;101777.97;;;22.67;32.21
67038;BME280;53940;53.204;6.590;2023-12-07T04:22:31;101781.66;;;22.66;32.14
67038;BME280;53940;53.204;6.590;2023-12-07T04:25:31;101776.41;;;22.65;32.00
67038;BME280;53940;53.204;6.590;2023-12-07T04:28:32;101778.25;;;22.64;32.18
67038;BME280;53940;53.204;6.590;2023-12-07T04:31:32;101780.19;;;22.62;32.16
67038;BME280;53940;53.204;6.590;2023-12-07T04:34:33;101774.00;;;22.61;31.99
67038;BME280;53940;53.204;6.590;2023-12-07T04:37:33;101780.34;;;22.60;32.23
67038;BME280;53940;53.204;6.590;2023-12-07T04:40:34;101791.22;;;22.59;32.05
67038;BME280;53940;53.204;6.590;2023-12-07T04:43:34;101782.41;;;22.57;32.19
67038;BME280;53940;53.204;6.590;2023-12-07T04:46:34;101785.09;;;22.57;32.34
67038;BME280;53940;53.204;6.590;2023-12-07T04:49:35;101780.72;;;22.56;32.05
67038;BME280;53940;53.204;6.590;2023-12-07T04:52:36;101782.69;;;22.54;32.25
67038;BME280;53940;53.204;6.590;2023-12-07T04:55:36;101778.31;;;22.53;32.37
67038;BME280;53940;53.204;6.590;2023-12-07T04:58:36;101790.88;;;22.52;32.17
67038;BME280;53940;53.204;6.590;2023-12-07T05:01:37;101789.13;;;22.51;32.11
67038;BME280;53940;53.204;6.590;2023-12-07T05:04:37;101782.91;;;22.51;32.08
67038;BME280;53940;53.204;6.590;2023-12-07T05:07:38;101786.56;;;22.49;32.22
67038;BME280;53940;53.204;6.590;2023-12-07T05:10:38;101789.25;;;22.49;32.28
67038;BME280;53940;53.204;6.590;2023-12-07T05:13:38;101801.84;;;22.49;32.27
67038;BME280;53940;53.204;6.590;2023-12-07T05:16:38;101799.28;;;22.47;32.21
67038;BME280;53940;53.204;6.590;2023-12-07T05:19:39;101799.28;;;22.47;32.29
67038;BME280;53940;53.204;6.590;2023-12-07T05:22:39;101793.22;;;22.45;32.24
67038;BME280;53940;53.204;6.590;2023-12-07T05:25:39;101791.47;;;22.44;32.23
67038;BME280;53940;53.204;6.590;2023-12-07T05:28:40;101787.09;;;22.43;32.16
67038;BME280;53940;53.204;6.590;2023-12-07T05:31:40;101782.69;;;22.42;32.30
67038;BME280;53940;53.204;6.590;2023-12-07T05:34:41;101783.69;;;22.41;32.37
67038;BME280;53940;53.204;6.590;2023-12-07T05:37:42;101776.63;;;22.40;32.21
67038;BME280;53940;53.204;6.590;2023-12-07T05:40:42;101779.31;;;22.40;32.20
67038;BME280;53940;53.204;6.590;2023-12-07T05:43:42;101782.97;;;22.39;32.46
67038;BME280;53940;53.204;6.590;2023-12-07T05:46:43;101778.56;;;22.38;32.52
67038;BME280;53940;53.204;6.590;2023-12-07T05:49:44;101782.22;;;22.37;32.29
67038;BME280;53940;53.204;6.590;2023-12-07T05:52:44;101781.41;;;22.37;32.33
67038;BME280;53940;53.204;6.590;2023-12-07T05:55:45;101782.38;;;22.35;32.40
67038;BME280;53940;53.204;6.590;2023-12-07T05:58:47;101782.50;;;22.34;32.50
67038;BME280;53940;53.204;6.590;2023-12-07T06:01:51;101780.81;;;22.33;32.18
67038;BME280;53940;53.204;6.590;2023-12-07T06:04:51;101777.25;;;22.32;32.45
67038;BME280;53940;53.204;6.590;2023-12-07T06:07:52;101788.13;;;22.31;32.57
67038;BME280;53940;53.204;6.590;2023-12-07T06:10:54;101786.41;;;22.30;32.23
67038;BME280;53940;53.204;6.590;2023-12-07T06:13:54;101783.72;;;22.30;32.59
67038;BME280;53940;53.204;6.590;2023-12-07T06:16:55;101778.47;;;22.28;32.34
67038;BME280;53940;53.204;6.590;2023-12-07T06:19:55;101783.84;;;22.28;32.40
67038;BME280;53940;53.204;6.590;2023-12-07T06:22:55;101794.59;;;22.28;32.20
67038;BME280;53940;53.204;6.590;2023-12-07T06:25:56;101791.06;;;22.28;32.55
67038;BME280;53940;53.204;6.590;2023-12-07T06:28:56;101807.19;;;22.28;32.20
67038;BME280;53940;53.204;6.590;2023-12-07T06:31:57;101799.13;;;22.28;32.57
67038;BME280;53940;53.204;6.590;2023-12-07T06:34:57;101792.06;;;22.27;32.45
67038;BME280;53940;53.204;6.590;2023-12-07T06:37:58;101789.50;;;22.25;32.45
67038;BME280;53940;53.204;6.590;2023-12-07T06:40:58;101787.63;;;22.26;32.67
67038;BME280;53940;53.204;6.590;2023-12-07T06:43:58;101799.38;;;22.25;32.69
67038;BME280;53940;53.204;6.590;2023-12-07T06:46:59;101804.72;;;22.25;32.53
67038;BME280;53940;53.204;6.590;2023-12-07T06:50:04;101806.69;;;22.23;32.38
67038;BME280;53940;53.204;6.590;2023-12-07T06:53:05;101811.22;;;22.22;32.57
67038;BME280;53940;53.204;6.590;2023-12-07T06:56:05;101810.38;;;22.21;32.67
67038;BME280;53940;53.204;6.590;2023-12-07T06:59:06;101812.31;;;22.19;32.64
67038;BME280;53940;53.204;6.590;2023-12-07T07:02:06;101815.97;;;22.18;32.55
67038;BME280;53940;53.204;6.590;2023-12-07T07:05:07;101808.91;;;22.17;32.54
67038;BME280;53940;53.204;6.590;2023-12-07T07:08:07;101806.34;;;22.16;32.52
67038;BME280;53940;53.204;6.590;2023-12-07T07:11:14;101809.19;;;22.14;32.64
67038;BME280;53940;53.204;6.590;2023-12-07T07:14:15;101803.81;;;22.14;32.87
67038;BME280;53940;53.204;6.590;2023-12-07T07:17:15;101809.28;;;22.13;32.91
67038;BME280;53940;53.204;6.590;2023-12-07T07:20:16;101816.47;;;22.12;32.84
67038;BME280;53940;53.204;6.590;2023-12-07T07:23:17;101813.78;;;22.12;32.64
67038;BME280;53940;53.204;6.590;2023-12-07T07:26:17;101814.78;;;22.11;32.69
67038;BME280;53940;53.204;6.590;2023-12-07T07:29:18;101811.25;;;22.11;32.87
67038;BME280;53940;53.204;6.590;2023-12-07T07:32:18;101819.31;;;22.11;32.69
67038;BME280;53940;53.204;6.590;2023-12-07T07:35:18;101824.69;;;22.11;32.98
67038;BME280;53940;53.204;6.590;2023-12-07T07:38:19;101806.84;;;22.10;32.71
67038;BME280;53940;53.204;6.590;2023-12-07T07:41:19;101815.88;;;22.08;33.06
67038;BME280;53940;53.204;6.590;2023-12-07T07:44:19;101820.41;;;22.08;32.82
67038;BME280;53940;53.204;6.590;2023-12-07T07:47:20;101824.06;;;22.07;33.07
67038;BME280;53940;53.204;6.590;2023-12-07T07:50:20;101818.09;;;22.03;33.20
67038;BME280;53940;53.204;6.590;2023-12-07T07:53:21;101820.66;;;22.05;33.12
67038;BME280;53940;53.204;6.590;2023-12-07T07:56:21;101828.59;;;22.06;33.11
67038;BME280;53940;53.204;6.590;2023-12-07T07:59:21;101821.53;;;22.05;33.33
67038;BME280;53940;53.204;6.590;2023-12-07T08:02:22;101830.41;;;22.06;33.17
67038;BME280;53940;53.204;6.590;2023-12-07T08:05:22;101828.59;;;22.06;33.30
67038;BME280;53940;53.204;6.590;2023-12-07T08:08:22;101829.41;;;22.07;33.34
67038;BME280;53940;53.204;6.590;2023-12-07T08:11:23;101831.16;;;22.08;33.43
67038;BME280;53940;53.204;6.590;2023-12-07T08:14:23;101826.75;;;22.07;33.42
67038;BME280;53940;53.204;6.590;2023-12-07T08:17:23;101829.41;;;22.07;33.15
67038;BME280;53940;53.204;6.590;2023-12-07T08:20:25;101828.59;;;22.06;33.32
67038;BME280;53940;53.204;6.590;2023-12-07T08:23:26;101833.25;;;22.04;33.34
67038;BME280;53940;53.204;6.590;2023-12-07T08:26:26;101830.78;;;22.01;33.44
67038;BME280;53940;53.204;6.590;2023-12-07T08:29:28;101829.91;;;22.01;33.58
67038;BME280;53940;53.204;6.590;2023-12-07T08:32:28;101828.22;;;22.00;33.42
67038;BME280;53940;53.204;6.590;2023-12-07T08:35:29;101823.13;;;21.97;33.61
67038;BME280;53940;53.204;6.590;2023-12-07T08:38:29;101823.34;;;21.93;33.59
67038;BME280;53940;53.204;6.590;2023-12-07T08:41:30;101819.09;;;21.91;33.52
67038;BME280;53940;53.204;6.590;2023-12-07T08:44:30;101819.94;;;21.91;33.31
67038;BME280;53940;53.204;6.590;2023-12-07T08:47:31;101816.53;;;21.89;33.70
67038;BME280;53940;53.204;6.590;2023-12-07T08:50:31;101820.19;;;21.88;33.40
67038;BME280;53940;53.204;6.590;2023-12-07T08:53:32;101814.22;;;21.85;33.72
67038;BME280;53940;53.204;6.590;2023-12-07T08:56:32;101810.81;;;21.83;33.48
67038;BME280;53940;53.204;6.590;2023-12-07T08:59:32;101812.78;;;21.80;33.74
67038;BME280;53940;53.204;6.590;2023-12-07T09:02:33;101816.41;;;21.79;33.53
67038;BME280;53940;53.204;6.590;2023-12-07T09:05:33;101816.56;;;21.78;33.75
67038;BME280;53940;53.204;6.590;2023-12-07T09:08:34;101828.25;;;21.77;33.42
67038;BME280;53940;53.204;6.590;2023-12-07T09:11:34;101817.53;;;21.77;33.35
67038;BME280;53940;53.204;6.590;2023-12-07T09:14:35;101819.25;;;21.78;33.31
67038;BME280;53940;53.204;6.590;2023-12-07T09:17:39;101822.03;;;21.76;33.46
67038;BME280;53940;53.204;6.590;2023-12-07T09:20:39;101826.31;;;21.79;33.31
67038;BME280;53940;53.204;6.590;2023-12-07T09:23:46;101821.91;;;21.78;33.48
67038;BME280;53940;53.204;6.590;2023-12-07T09:26:46;101832.50;;;21.79;33.44
67038;BME280;53940;53.204;6.590;2023-12-07T09:29:47;101825.31;;;21.80;33.53
67038;BME280;53940;53.204;6.590;2023-12-07T09:32:47;101824.34;;;21.81;33.33
67038;BME280;53940;53.204;6.590;2023-12-07T09:35:47;101824.34;;;21.81;33.63
67038;BME280;53940;53.204;6.590;2023-12-07T09:38:49;101826.03;;;21.82;33.33
67038;BME280;53940;53.204;6.590;2023-12-07T09:41:49;101826.91;;;21.83;33.23
67038;BME280;53940;53.204;6.590;2023-12-07T09:44:49;101831.28;;;21.84;33.41
67038;BME280;53940;53.204;6.590;2023-12-07T09:47:51;101838.50;;;21.83;33.41
67038;BME280;53940;53.204;6.590;2023-12-07T09:50:55;101843.88;;;21.83;33.57
67038;BME280;53940;53.204;6.590;2023-12-07T09:53:56;101830.31;;;21.85;33.35
67038;BME280;53940;53.204;6.590;2023-12-07T09:56:56;101828.50;;;21.85;33.48
67038;BME280;53940;53.204;6.590;2023-12-07T09:59:57;101832.00;;;21.86;33.50
67038;BME280;53940;53.204;6.590;2023-12-07T10:02:57;101823.84;;;21.87;33.34
67038;BME280;53940;53.204;6.590;2023-12-07T10:05:59;101821.03;;;21.89;33.37
67038;BME280;53940;53.204;6.590;2023-12-07T10:09:03;101812.88;;;21.90;33.18
67038;BME280;53940;53.204;6.590;2023-12-07T10:12:04;101810.06;;;21.92;33.39
67038;BME280;53940;53.204;6.590;2023-12-07T10:15:12;101807.25;;;21.93;33.15
67038;BME280;53940;53.204;6.590;2023-12-07T10:18:23;101812.63;;;21.93;33.17
67038;BME280;53940;53.204;6.590;2023-12-07T10:21:33;101799.06;;;21.95;33.50
67038;BME280;53940;53.204;6.590;2023-12-07T10:24:33;101805.31;;;21.96;33.26
67038;BME280;53940;53.204;6.590;2023-12-07T10:27:34;101807.00;;;21.97;33.14
67038;BME280;53940;53.204;6.590;2023-12-07T10:30:35;101809.69;;;21.97;33.27
67038;BME280;53940;53.204;6.590;2023-12-07T10:33:35;101806.03;;;21.98;33.05
67038;BME280;53940;53.204;6.590;2023-12-07T10:36:36;101796.00;;;22.00;33.08
67038;BME280;53940;53.204;6.590;2023-12-07T10:39:36;101798.56;;;22.01;33.44
67038;BME280;53940;53.204;6.590;2023-12-07T10:42:40;101806.50;;;22.03;33.13
67038;BME280;53940;53.204;6.590;2023-12-07T10:45:41;101798.34;;;22.04;33.18
67038;BME280;53940;53.204;6.590;2023-12-07T10:48:44;101798.19;;;22.06;33.12
67038;BME280;53940;53.204;6.590;2023-12-07T10:51:51;101793.56;;;22.08;32.93
67038;BME280;53940;53.204;6.590;2023-12-07T10:55:10;101780.00;;;22.10;32.90
67038;BME280;53940;53.204;6.590;2023-12-07T10:58:13;101776.97;;;22.14;33.08
67038;BME280;53940;53.204;6.590;2023-12-07T11:01:16;101771.31;;;22.17;32.73
67038;BME280;53940;53.204;6.590;2023-12-07T11:04:18;101774.72;;;22.19;33.03
67038;BME280;53940;53.204;6.590;2023-12-07T11:07:20;101781.56;;;22.24;32.83
67038;BME280;53940;53.204;6.590;2023-12-07T11:10:40;101769.72;;;22.26;32.97
67038;BME280;53940;53.204;6.590;2023-12-07T11:13:48;101771.28;;;22.29;32.82
67038;BME280;53940;53.204;6.590;2023-12-07T11:16:52;101763.81;;;22.32;32.92
67038;BME280;53940;53.204;6.590;2023-12-07T11:19:54;101769.06;;;22.34;32.78
67038;BME280;53940;53.204;6.590;2023-12-07T11:22:56;101768.81;;;22.37;33.05
67038;BME280;53940;53.204;6.590;2023-12-07T11:25:56;101761.50;;;22.39;32.80
67038;BME280;53940;53.204;6.590;2023-12-07T11:28:56;101762.19;;;22.41;32.74
67038;BME280;53940;53.204;6.590;2023-12-07T11:32:04;101754.84;;;22.43;32.89
67038;BME280;53940;53.204;6.590;2023-12-07T11:35:06;101750.22;;;22.45;32.80
67038;BME280;53940;53.204;6.590;2023-12-07T11:38:11;101743.00;;;22.46;32.95
67038;BME280;53940;53.204;6.590;2023-12-07T11:41:12;101741.19;;;22.46;32.81
67038;BME280;53940;53.204;6.590;2023-12-07T11:44:12;101739.22;;;22.48;32.70
67038;BME280;53940;53.204;6.590;2023-12-07T11:47:17;101729.47;;;22.47;32.78
67038;BME280;53940;53.204;6.590;2023-12-07T11:50:18;101724.78;;;22.49;32.92
67038;BME280;53940;53.204;6.590;2023-12-07T11:53:22;101720.41;;;22.48;32.79
67038;BME280;53940;53.204;6.590;2023-12-07T11:56:24;101729.47;;;22.47;32.66
67038;BME280;53940;53.204;6.590;2023-12-07T11:59:24;101729.47;;;22.47;32.91
67038;BME280;53940;53.204;6.590;2023-12-07T12:02:27;101727.75;;;22.46;32.94
67038;BME280;53940;53.204;6.590;2023-12-07T12:05:28;101724.09;;;22.47;32.69
67038;BME280;53940;53.204;6.590;2023-12-07T12:08:28;101722.97;;;22.50;32.51
67038;BME280;53940;53.204;6.590;2023-12-07T12:11:29;101718.22;;;22.54;32.55
67038;BME280;53940;53.204;6.590;2023-12-07T12:14:30;101709.06;;;22.56;32.74
67038;BME280;53940;53.204;6.590;2023-12-07T12:17:30;101711.22;;;22.63;32.60
67038;BME280;53940;53.204;6.590;2023-12-07T12:20:31;101713.50;;;22.67;32.74
67038;BME280;53940;53.204;6.590;2023-12-07T12:23:32;101704.19;;;22.71;32.90
67038;BME280;53940;53.204;6.590;2023-12-07T12:26:37;101691.34;;;22.75;33.08
67038;BME280;53940;53.204;6.590;2023-12-07T12:29:39;101690.22;;;22.78;33.21
67038;BME280;53940;53.204;6.590;2023-12-07T12:32:45;101688.25;;;22.80;33.03
67038;BME280;53940;53.204;6.590;2023-12-07T12:35:45;101690.94;;;22.80;33.06
67038;BME280;53940;53.204;6.590;2023-12-07T12:38:47;101682.88;;;22.80;32.98
67038;BME280;53940;53.204;6.590;2023-12-07T12:41:54;101686.44;;;22.80;32.97
67038;BME280;53940;53.204;6.590;2023-12-07T12:44:54;101678.50;;;22.79;33.41
67038;BME280;53940;53.204;6.590;2023-12-07T12:47:55;101679.59;;;22.76;32.93
67038;BME280;53940;53.204;6.590;2023-12-07T12:50:55;101675.34;;;22.73;33.15
67038;BME280;53940;53.204;6.590;2023-12-07T12:53:56;101672.78;;;22.72;33.40
67038;BME280;53940;53.204;6.590;2023-12-07T12:56:56;101657.81;;;22.69;33.31
67038;BME280;53940;53.204;6.590;2023-12-07T12:59:57;101649.88;;;22.68;33.38
67038;BME280;53940;53.204;6.590;2023-12-07T13:02:57;101649.28;;;22.64;33.13
67038;BME280;53940;53.204;6.590;2023-12-07T13:05:58;101640.50;;;22.62;33.24
67038;BME280;53940;53.204;6.590;2023-12-07T13:08:59;101639.09;;;22.58;33.30
67038;BME280;53940;53.204;6.590;2023-12-07T13:11:59;101644.72;;;22.55;33.28
67038;BME280;53940;53.204;6.590;2023-12-07T13:15:00;101638.63;;;22.53;33.46
67038;BME280;53940;53.204;6.590;2023-12-07T13:18:00;101632.47;;;22.51;33.32
67038;BME280;53940;53.204;6.590;2023-12-07T13:21:00;101634.47;;;22.48;33.47
67038;BME280;53940;53.204;6.590;2023-12-07T13:24:02;101632.75;;;22.47;33.46
67038;BME280;53940;53.204;6.590;2023-12-07T13:27:05;101631.06;;;22.46;33.42
67038;BME280;53940;53.204;6.590;2023-12-07T13:30:05;101631.31;;;22.43;33.57
67038;BME280;53940;53.204;6.590;2023-12-07T13:33:06;101643.03;;;22.42;33.43
67038;BME280;53940;53.204;6.590;2023-12-07T13:36:09;101653.09;;;22.40;33.31
67038;BME280;53940;53.204;6.590;2023-12-07T13:39:09;101647.97;;;22.37;33.59
67038;BME280;53940;53.204;6.590;2023-12-07T13:42:13;101648.13;;;22.35;33.58
67038;BME280;53940;53.204;6.590;2023-12-07T13:45:13;101642.88;;;22.34;33.60
67038;BME280;53940;53.204;6.590;2023-12-07T13:48:14;101633.22;;;22.31;33.51
67038;BME280;53940;53.204;6.590;2023-12-07T13:51:15;101634.34;;;22.29;33.64
67038;BME280;53940;53.204;6.590;2023-12-07T13:54:15;101631.19;;;22.24;33.54
67038;BME280;53940;53.204;6.590;2023-12-07T13:57:16;101624.38;;;22.19;33.45
67038;BME280;53940;53.204;6.590;2023-12-07T14:00:16;101628.06;;;22.18;33.54
67038;BME280;53940;53.204;6.590;2023-12-07T14:03:17;101630.03;;;22.16;33.65
67038;BME280;53940;53.204;6.590;2023-12-07T14:06:26;101624.78;;;22.15;33.68
67038;BME280;53940;53.204;6.590;2023-12-07T14:09:27;101628.56;;;22.12;33.50
67038;BME280;53940;53.204;6.590;2023-12-07T14:12:27;101626.88;;;22.11;33.83
67038;BME280;53940;53.204;6.590;2023-12-07T14:15:28;101641.28;;;22.10;33.53
67038;BME280;53940;53.204;6.590;2023-12-07T14:18:28;101627.97;;;22.08;33.37
67038;BME280;53940;53.204;6.590;2023-12-07T14:21:28;101625.41;;;22.07;33.49
67038;BME280;53940;53.204;6.590;2023-12-07T14:24:29;101623.88;;;22.04;33.44
67038;BME280;53940;53.204;6.590;2023-12-07T14:27:30;101635.44;;;22.05;33.47
67038;BME280;53940;53.204;6.590;2023-12-07T14:30:30;101647.16;;;22.04;33.57
67038;BME280;53940;53.204;6.590;2023-12-07T14:33:31;101630.34;;;22.02;32.90
67038;BME280;53940;53.204;6.590;2023-12-07T14:36:31;101642.03;;;22.01;33.34
67038;BME280;53940;53.204;6.590;2023-12-07T14:39:32;101634.28;;;21.98;33.35
67038;BME280;53940;53.204;6.590;2023-12-07T14:42:32;101623.53;;;21.98;33.45
67038;BME280;53940;53.204;6.590;2023-12-07T14:45:32;101615.47;;;21.98;33.60
67038;BME280;53940;53.204;6.590;2023-12-07T14:48:33;101609.41;;;21.96;33.56
67038;BME280;53940;53.204;6.590;2023-12-07T14:51:33;101614.03;;;21.93;33.65
67038;BME280;53940;53.204;6.590;2023-12-07T14:54:36;101607.25;;;21.89;33.60
67038;BME280;53940;53.204;6.590;2023-12-07T14:57:36;101608.34;;;21.87;33.60
67038;BME280;53940;53.204;6.590;2023-12-07T15:00:37;101614.81;;;21.84;33.46
67038;BME280;53940;53.204;6.590;2023-12-07T15:03:37;101622.97;;;21.83;33.80
67038;BME280;53940;53.204;6.590;2023-12-07T15:06:37;101622.13;;;21.82;33.45
67038;BME280;53940;53.204;6.590;2023-12-07T15:09:38;101620.53;;;21.79;33.55
67038;BME280;53940;53.204;6.590;2023-12-07T15:12:38;101613.94;;;21.84;33.58
67038;BME280;53940;53.204;6.590;2023-12-07T15:15:38;101602.13;;;21.86;33.58
67038;BME280;53940;53.204;6.590;2023-12-07T15:18:39;101584.78;;;21.90;33.66
67038;BME280;53940;53.204;6.590;2023-12-07T15:21:45;101577.31;;;21.94;33.70
67038;BME280;53940;53.204;6.590;2023-12-07T15:24:45;101581.56;;;21.97;33.70
67038;BME280;53940;53.204;6.590;2023-12-07T15:27:45;101574.25;;;21.99;33.48
67038;BME280;53940;53.204;6.590;2023-12-07T15:30:47;101573.13;;;22.01;33.42
67038;BME280;53940;53.204;6.590;2023-12-07T15:33:47;101564.94;;;22.03;33.72
67038;BME280;53940;53.204;6.590;2023-12-07T15:36:48;101562.16;;;22.04;33.43
67038;BME280;53940;53.204;6.590;2023-12-07T15:39:48;101555.91;;;22.04;33.52
67038;BME280;53940;53.204;6.590;2023-12-07T15:42:49;101562.97;;;22.05;33.40
67038;BME280;53940;53.204;6.590;2023-12-07T15:45:50;101565.66;;;22.05;33.46